Time;durP1;ratioP1;P1;durP2;ratioP2;P2;SDS_P1;SDS_P2;PMS_P1;PMS_P2;Temp;Humidity;BMP_temperature;BMP_pressure;BME280_temperature;BME280_humidity;BME280_pressure;Samples;Min_cycle;Max_cycle;Signal;HPM_P1;HPM_P2
2023/09/05 00:02:18;;;;;;;55.95;36.53;;;18.40;99.90;;;;;;4910005;29;20052;-59
2023/09/05 00:04:46;;;;;;;56.65;37.20;;;18.40;99.90;;;;;;4908113;29;20068;-60
2023/09/05 00:07:14;;;;;;;54.72;35.92;;;18.40;99.90;;;;;;4909850;29;20361;-60
2023/09/05 00:09:40;;;;;;;59.80;38.55;;;18.30;99.90;;;;;;4908806;29;20055;-60
2023/09/05 00:12:08;;;;;;;56.88;35.45;;;18.30;99.90;;;;;;4909435;29;20056;-61
2023/09/05 00:14:35;;;;;;;51.58;36.25;;;18.20;99.90;;;;;;4896116;29;20076;-60
2023/09/05 00:17:03;;;;;;;55.13;35.33;;;18.20;99.90;;;;;;4894711;29;20071;-60
2023/09/05 00:19:30;;;;;;;52.97;36.70;;;18.20;99.90;;;;;;4909231;29;20041;-60
2023/09/05 00:21:56;;;;;;;56.20;36.92;;;18.20;99.90;;;;;;4901542;29;20060;-60
2023/09/05 00:24:33;;;;;;;53.30;37.45;;;18.20;99.90;;;;;;4905774;29;20059;-60
2023/09/05 00:27:01;;;;;;;60.28;39.25;;;18.20;99.90;;;;;;4909421;29;20060;-59
2023/09/05 00:29:30;;;;;;;58.78;36.00;;;18.10;99.90;;;;;;4910111;29;20111;-59
2023/09/05 00:32:00;;;;;;;56.20;34.40;;;18.00;99.90;;;;;;4911687;29;20052;-58
2023/09/05 00:34:32;;;;;;;57.22;37.55;;;17.90;99.90;;;;;;4900105;29;20499;-59
2023/09/05 00:37:03;;;;;;;52.95;35.45;;;17.90;99.90;;;;;;4904937;29;20068;-60
2023/09/05 00:39:40;;;;;;;55.17;36.10;;;18.00;99.90;;;;;;4905977;29;20044;-61
2023/09/05 00:42:10;;;;;;;49.50;33.15;;;18.00;99.90;;;;;;4904400;29;20052;-61
2023/09/05 00:44:37;;;;;;;52.90;31.92;;;18.00;99.90;;;;;;4897035;29;20070;-61
2023/09/05 00:47:04;;;;;;;53.20;34.45;;;17.90;99.90;;;;;;4908592;29;20783;-61
2023/09/05 00:49:38;;;;;;;60.13;38.67;;;17.90;99.90;;;;;;4892867;29;20052;-60
2023/09/05 00:52:06;;;;;;;54.40;37.28;;;17.90;99.90;;;;;;4910622;29;20056;-60
2023/09/05 00:54:34;;;;;;;60.92;38.08;;;17.80;99.90;;;;;;4883882;29;20099;-60
2023/09/05 00:57:01;;;;;;;59.47;34.53;;;17.80;99.90;;;;;;4910349;29;20699;-60
2023/09/05 00:59:28;;;;;;;49.22;35.92;;;17.80;99.90;;;;;;4899568;29;20135;-62
2023/09/05 01:01:55;;;;;;;55.90;35.90;;;17.80;99.90;;;;;;4910448;29;20067;-60
2023/09/05 01:04:23;;;;;;;62.60;37.50;;;17.70;99.90;;;;;;4907531;29;20052;-60
2023/09/05 01:07:13;;;;;;;61.15;38.85;;;17.80;99.90;;;;;;4909861;29;20044;-60
2023/09/05 01:09:48;;;;;;;46.72;33.17;;;17.70;99.90;;;;;;4547404;29;10000132;-61
2023/09/05 01:12:15;;;;;;;55.78;34.38;;;17.60;99.90;;;;;;4893617;29;20115;-61
2023/09/05 01:14:42;;;;;;;45.67;29.67;;;17.60;99.90;;;;;;4887738;29;20044;-61
2023/09/05 01:17:09;;;;;;;46.58;29.27;;;17.60;99.90;;;;;;4910370;29;20052;-60
2023/09/05 01:19:38;;;;;;;46.03;31.23;;;17.60;99.90;;;;;;4902120;29;20040;-60
2023/09/05 01:22:23;;;;;;;46.67;31.13;;;17.60;99.90;;;;;;4888540;29;20100;-62
2023/09/05 01:24:50;;;;;;;45.13;29.70;;;17.60;99.90;;;;;;4906179;29;20049;-61
2023/09/05 01:27:22;;;;;;;50.83;32.72;;;17.50;99.90;;;;;;4892116;29;20120;-61
2023/09/05 01:29:50;;;;;;;51.47;30.45;;;17.50;99.90;;;;;;4907917;29;20052;-59
2023/09/05 01:32:17;;;;;;;47.25;29.92;;;17.40;99.90;;;;;;4906984;29;20057;-60
2023/09/05 01:34:44;;;;;;;47.92;30.30;;;17.40;99.90;;;;;;4892654;29;20204;-59
2023/09/05 01:37:15;;;;;;;45.25;30.65;;;17.40;99.90;;;;;;4902435;29;20052;-59
2023/09/05 01:39:42;;;;;;;42.20;28.33;;;17.20;99.90;;;;;;4903263;29;20048;-59
2023/09/05 01:42:09;;;;;;;44.50;27.65;;;17.10;99.90;;;;;;4898028;29;20488;-59
2023/09/05 01:44:38;;;;;;;38.47;25.33;;;17.00;99.90;;;;;;4908319;29;20514;-60
2023/09/05 01:47:05;;;;;;;50.78;30.58;;;17.00;99.90;;;;;;4909157;29;20146;-59
2023/09/05 01:49:32;;;;;;;49.58;31.15;;;16.90;99.90;;;;;;4909086;29;20337;-59
2023/09/05 01:51:59;;;;;;;48.63;32.35;;;16.90;99.90;;;;;;4899478;29;20059;-60
2023/09/05 01:54:26;;;;;;;53.78;33.90;;;17.00;99.90;;;;;;4889568;29;20052;-60
2023/09/05 01:56:53;;;;;;;46.65;30.52;;;17.00;99.90;;;;;;4908267;29;20412;-59
2023/09/05 01:59:20;;;;;;;51.72;31.73;;;17.00;99.90;;;;;;4908733;29;20056;-60
2023/09/05 02:01:47;;;;;;;51.72;32.90;;;17.00;99.90;;;;;;4900372;29;20080;-59
2023/09/05 02:04:14;;;;;;;52.03;33.67;;;17.00;99.90;;;;;;4906331;29;20071;-59
2023/09/05 02:06:41;;;;;;;53.10;32.58;;;17.00;99.90;;;;;;4889948;29;20056;-60
2023/09/05 02:09:08;;;;;;;52.53;35.05;;;17.00;99.90;;;;;;4890468;29;20142;-58
2023/09/05 02:11:35;;;;;;;53.28;32.58;;;17.00;99.90;;;;;;4902051;29;20453;-59
2023/09/05 02:14:01;;;;;;;52.17;32.10;;;17.00;99.90;;;;;;4905004;29;20498;-59
2023/09/05 02:16:30;;;;;;;48.97;32.28;;;17.00;99.90;;;;;;4899783;29;20578;-59
2023/09/05 02:18:57;;;;;;;52.30;31.17;;;17.00;99.90;;;;;;4906183;29;20056;-59
2023/09/05 02:21:24;;;;;;;51.42;34.05;;;16.90;99.90;;;;;;4905034;29;20052;-60
2023/09/05 02:23:51;;;;;;;53.17;34.40;;;16.90;99.90;;;;;;4909201;29;20054;-60
2023/09/05 02:26:17;;;;;;;51.97;32.70;;;16.90;99.90;;;;;;4906314;29;20060;-62
2023/09/05 02:28:44;;;;;;;55.83;35.05;;;16.90;99.90;;;;;;4908992;29;20954;-60
2023/09/05 02:31:12;;;;;;;52.25;31.95;;;16.90;99.90;;;;;;4912936;29;20064;-60
2023/09/05 02:33:38;;;;;;;48.88;29.70;;;16.80;99.90;;;;;;4908670;29;20073;-59
2023/09/05 02:36:21;;;;;;;54.25;32.00;;;16.80;99.90;;;;;;4909089;29;20064;-58
2023/09/05 02:38:48;;;;;;;46.72;31.85;;;16.80;99.90;;;;;;4900320;29;20053;-59
2023/09/05 02:41:15;;;;;;;46.25;31.20;;;16.80;99.90;;;;;;4910567;29;20048;-59
2023/09/05 02:43:43;;;;;;;50.40;31.48;;;16.80;99.90;;;;;;4909102;29;20075;-59
2023/09/05 02:46:10;;;;;;;43.72;31.42;;;16.80;99.90;;;;;;4910045;29;20052;-59
2023/09/05 02:48:38;;;;;;;45.92;30.75;;;16.80;99.90;;;;;;4909767;29;20111;-60
2023/09/05 02:51:09;;;;;;;47.78;29.02;;;16.70;99.90;;;;;;4912740;29;20083;-60
2023/09/05 02:53:36;;;;;;;42.95;27.65;;;16.70;99.90;;;;;;4889412;29;20484;-59
2023/09/05 02:56:03;;;;;;;49.15;30.33;;;16.70;99.90;;;;;;4911526;29;20044;-59
2023/09/05 02:58:31;;;;;;;37.83;25.10;;;16.70;99.90;;;;;;4907388;29;20067;-59
2023/09/05 03:01:03;;;;;;;40.90;26.98;;;16.60;99.90;;;;;;4909207;29;20441;-59
2023/09/05 03:03:30;;;;;;;43.40;25.85;;;16.60;99.90;;;;;;4908680;29;20084;-60
2023/09/05 03:06:06;;;;;;;43.55;26.90;;;16.60;99.90;;;;;;4878891;29;20053;-60
2023/09/05 03:08:34;;;;;;;40.60;25.60;;;16.60;99.90;;;;;;4903105;29;20420;-59
2023/09/05 03:11:01;;;;;;;41.03;25.77;;;16.50;99.90;;;;;;4911133;29;20044;-59
2023/09/05 03:13:28;;;;;;;37.75;25.92;;;16.50;99.90;;;;;;4903911;29;20056;-59
2023/09/05 03:15:55;;;;;;;41.42;27.65;;;16.40;99.90;;;;;;4893702;29;20044;-59
2023/09/05 03:18:22;;;;;;;41.50;27.85;;;16.30;99.90;;;;;;4904993;29;20126;-59
2023/09/05 03:20:49;;;;;;;38.55;27.77;;;16.30;99.90;;;;;;4906090;29;20404;-59
2023/09/05 03:23:16;;;;;;;47.92;29.10;;;16.30;99.90;;;;;;4910149;29;20048;-60
2023/09/05 03:25:43;;;;;;;44.85;28.23;;;16.30;99.90;;;;;;4912258;29;20050;-60
2023/09/05 03:28:11;;;;;;;45.17;27.98;;;16.30;99.90;;;;;;4905554;29;20519;-61
2023/09/05 03:30:39;;;;;;;53.58;33.60;;;16.30;99.90;;;;;;4909180;29;20080;-60
2023/09/05 03:33:06;;;;;;;51.88;31.70;;;16.40;99.90;;;;;;4902355;29;20588;-60
2023/09/05 03:35:33;;;;;;;47.60;31.00;;;16.40;99.90;;;;;;4900838;29;20412;-60
2023/09/05 03:38:01;;;;;;;55.10;32.25;;;16.40;99.90;;;;;;4907398;29;20052;-60
2023/09/05 03:40:28;;;;;;;54.97;33.00;;;16.30;99.90;;;;;;4915978;29;20063;-59
2023/09/05 03:42:55;;;;;;;53.58;34.25;;;16.20;99.90;;;;;;4896261;29;20171;-59
2023/09/05 03:45:22;;;;;;;54.40;35.85;;;16.20;99.90;;;;;;4884576;29;20066;-59
2023/09/05 03:47:49;;;;;;;57.90;34.60;;;16.10;99.90;;;;;;4907118;29;20111;-59
2023/09/05 03:50:26;;;;;;;66.75;41.33;;;16.10;99.90;;;;;;4903289;29;20048;-59
2023/09/05 03:52:52;;;;;;;69.28;39.83;;;16.20;99.90;;;;;;4911401;29;20563;-59
2023/09/05 03:55:20;;;;;;;57.03;35.13;;;16.20;99.90;;;;;;4892396;29;20104;-59
2023/09/05 03:57:47;;;;;;;65.50;35.17;;;16.10;99.90;;;;;;4904144;29;20127;-59
2023/09/05 04:00:15;;;;;;;63.60;38.35;;;16.10;99.90;;;;;;4909287;29;20142;-59
2023/09/05 04:02:41;;;;;;;62.47;38.22;;;16.10;99.90;;;;;;4893786;29;20140;-59
2023/09/05 04:05:08;;;;;;;61.05;35.30;;;16.10;99.90;;;;;;4902733;29;20055;-59
2023/09/05 04:07:35;;;;;;;63.90;36.72;;;16.10;99.90;;;;;;4911319;29;20103;-58
2023/09/05 04:10:03;;;;;;;58.85;35.03;;;16.10;99.90;;;;;;4890494;29;20044;-58
2023/09/05 04:12:30;;;;;;;58.90;35.80;;;16.00;99.90;;;;;;4911518;29;20503;-59
2023/09/05 04:14:56;;;;;;;65.50;39.63;;;16.00;99.90;;;;;;4901570;29;20097;-59
2023/09/05 04:17:23;;;;;;;70.30;38.55;;;16.00;99.90;;;;;;4907875;29;20048;-59
2023/09/05 04:19:54;;;;;;;77.03;43.95;;;16.00;99.90;;;;;;4906150;29;20104;-59
2023/09/05 04:22:23;;;;;;;71.68;42.67;;;16.00;99.90;;;;;;4899832;29;20060;-59
2023/09/05 04:24:54;;;;;;;64.50;38.42;;;16.00;99.90;;;;;;4909637;29;20043;-59
2023/09/05 04:27:21;;;;;;;69.57;40.58;;;15.90;99.90;;;;;;4882210;29;20053;-59
2023/09/05 04:29:53;;;;;;;66.88;37.85;;;16.00;99.90;;;;;;4891908;29;20108;-59
2023/09/05 04:32:28;;;;;;;70.30;40.00;;;15.90;99.90;;;;;;4883296;29;20132;-59
2023/09/05 04:34:56;;;;;;;67.93;40.25;;;15.90;99.90;;;;;;4889775;29;20104;-59
2023/09/05 04:37:23;;;;;;;83.70;43.45;;;15.80;99.90;;;;;;4884288;29;20451;-60
2023/09/05 04:39:50;;;;;;;80.82;42.85;;;15.80;99.90;;;;;;4887503;29;20103;-59
2023/09/05 04:42:17;;;;;;;75.22;42.17;;;15.80;99.90;;;;;;4881498;29;20569;-59
2023/09/05 04:44:44;;;;;;;78.70;42.50;;;15.80;99.90;;;;;;4878640;29;20053;-59
2023/09/05 04:47:29;;;;;;;74.15;43.45;;;15.80;99.90;;;;;;4887257;29;20346;-59
2023/09/05 04:50:00;;;;;;;71.57;42.45;;;15.70;99.90;;;;;;4888461;29;20052;-59
2023/09/05 04:52:28;;;;;;;74.03;41.08;;;15.70;99.90;;;;;;4888603;29;20135;-59
2023/09/05 04:54:55;;;;;;;73.97;41.10;;;15.70;99.90;;;;;;4890575;29;20044;-59
2023/09/05 04:57:22;;;;;;;72.95;42.97;;;15.80;99.90;;;;;;4885582;29;20049;-60
2023/09/05 04:59:49;;;;;;;75.93;43.92;;;15.80;99.90;;;;;;4885936;29;20044;-59
2023/09/05 05:02:16;;;;;;;71.65;41.67;;;15.80;99.90;;;;;;4888595;29;20052;-59
2023/09/05 05:04:43;;;;;;;80.22;43.90;;;15.80;99.90;;;;;;4892029;29;20053;-60
2023/09/05 05:07:11;;;;;;;64.13;40.63;;;15.80;99.90;;;;;;4879621;29;20500;-60
2023/09/05 05:09:39;;;;;;;68.85;40.55;;;15.70;99.90;;;;;;4891675;29;20097;-59
2023/09/05 05:12:06;;;;;;;71.82;39.58;;;15.70;99.90;;;;;;4879738;29;20553;-59
2023/09/05 05:14:33;;;;;;;68.40;41.90;;;15.70;99.90;;;;;;4885280;29;20124;-59
2023/09/05 05:17:01;;;;;;;67.00;37.92;;;15.70;99.90;;;;;;4891414;29;20049;-59
2023/09/05 05:19:28;;;;;;;63.92;36.28;;;15.70;99.90;;;;;;4886522;29;20461;-59
2023/09/05 05:21:55;;;;;;;58.38;35.65;;;15.80;99.90;;;;;;4889628;29;20104;-59
2023/09/05 05:24:22;;;;;;;64.90;39.10;;;15.80;99.90;;;;;;4886605;29;20053;-62
2023/09/05 05:26:49;;;;;;;69.80;40.13;;;15.80;99.90;;;;;;4905471;29;20052;-59
2023/09/05 05:29:16;;;;;;;62.30;38.05;;;15.80;99.90;;;;;;4903428;29;20522;-61
2023/09/05 05:31:43;;;;;;;63.42;38.17;;;15.80;99.90;;;;;;4909808;29;20041;-59
2023/09/05 05:34:10;;;;;;;69.78;39.47;;;15.80;99.90;;;;;;4886605;29;20048;-59
2023/09/05 05:36:36;;;;;;;67.68;40.63;;;15.80;99.90;;;;;;4909813;29;20488;-59
2023/09/05 05:39:03;;;;;;;72.57;40.08;;;15.80;99.90;;;;;;4907795;29;20084;-59
2023/09/05 05:41:32;;;;;;;75.30;40.60;;;15.80;99.90;;;;;;4907308;29;20108;-60
2023/09/05 05:43:59;;;;;;;75.05;43.97;;;15.80;99.90;;;;;;4889189;29;20721;-60
2023/09/05 05:46:26;;;;;;;73.82;44.25;;;15.90;99.90;;;;;;4900583;29;20054;-61
2023/09/05 05:48:53;;;;;;;83.55;47.53;;;15.90;99.90;;;;;;4903334;29;20412;-60
2023/09/05 05:51:19;;;;;;;83.95;46.38;;;15.90;99.90;;;;;;4908411;29;20521;-59
2023/09/05 05:53:48;;;;;;;91.03;47.95;;;15.90;99.90;;;;;;4891114;29;20044;-59
2023/09/05 05:56:17;;;;;;;85.80;46.75;;;15.90;99.90;;;;;;4875269;29;20083;-59
2023/09/05 05:58:44;;;;;;;116.32;48.17;;;16.00;99.90;;;;;;4906832;29;20135;-59
2023/09/05 06:01:11;;;;;;;99.20;46.67;;;16.00;99.90;;;;;;4915153;29;20078;-59
2023/09/05 06:03:38;;;;;;;95.40;49.03;;;16.00;99.90;;;;;;4914524;29;20056;-60
2023/09/05 06:06:05;;;;;;;87.90;47.53;;;16.00;99.90;;;;;;4910010;29;20050;-59
2023/09/05 06:08:31;;;;;;;87.70;47.97;;;16.00;99.90;;;;;;4886957;29;20326;-61
2023/09/05 06:10:59;;;;;;;84.07;45.78;;;15.90;99.90;;;;;;4906341;29;20050;-60
2023/09/05 06:13:26;;;;;;;79.72;45.22;;;15.90;99.90;;;;;;4906576;29;20048;-60
2023/09/05 06:15:52;;;;;;;79.78;44.45;;;15.90;99.90;;;;;;4907539;29;20044;-59
2023/09/05 06:18:19;;;;;;;79.10;45.03;;;16.00;99.90;;;;;;4907961;29;20151;-60
2023/09/05 06:20:46;;;;;;;68.60;43.53;;;16.00;99.90;;;;;;4904874;29;20126;-60
2023/09/05 06:23:13;;;;;;;66.03;42.33;;;16.10;99.90;;;;;;4911392;29;20145;-59
2023/09/05 06:25:40;;;;;;;58.72;38.65;;;16.20;99.90;;;;;;4908046;29;20467;-58
2023/09/05 06:28:07;;;;;;;64.20;39.97;;;16.30;99.90;;;;;;4908907;29;20060;-59
2023/09/05 06:30:34;;;;;;;63.15;40.00;;;16.40;99.90;;;;;;4910638;29;20048;-59
2023/09/05 06:33:01;;;;;;;65.18;38.78;;;16.40;99.90;;;;;;4912212;29;20111;-60
2023/09/05 06:35:28;;;;;;;63.17;37.65;;;16.50;99.90;;;;;;4906342;29;20044;-60
2023/09/05 06:37:55;;;;;;;63.95;36.88;;;16.60;99.90;;;;;;4907773;29;20543;-60
2023/09/05 06:40:23;;;;;;;68.15;37.65;;;16.60;99.90;;;;;;4891774;29;20135;-60
2023/09/05 06:42:51;;;;;;;57.03;35.17;;;16.80;99.90;;;;;;4909484;29;20052;-57
2023/09/05 06:45:18;;;;;;;59.78;38.22;;;16.80;99.90;;;;;;4907252;29;20044;-57
2023/09/05 06:47:45;;;;;;;53.63;32.78;;;16.90;99.90;;;;;;4904234;29;20555;-57
2023/09/05 06:50:12;;;;;;;68.35;38.75;;;17.00;99.90;;;;;;4904155;29;20060;-56
2023/09/05 06:52:39;;;;;;;54.28;35.80;;;17.10;99.90;;;;;;4908851;29;20396;-56
2023/09/05 06:55:06;;;;;;;55.17;36.63;;;17.20;99.90;;;;;;4911087;29;20098;-58
2023/09/05 06:57:33;;;;;;;59.00;36.33;;;17.20;99.90;;;;;;4888748;29;20060;-57
2023/09/05 07:00:00;;;;;;;56.22;37.33;;;17.30;99.90;;;;;;4907540;29;20052;-57
2023/09/05 07:02:27;;;;;;;61.20;37.97;;;17.40;99.90;;;;;;4912205;29;20058;-59
2023/09/05 07:04:53;;;;;;;53.88;35.60;;;17.50;99.90;;;;;;4887863;29;20087;-58
2023/09/05 07:07:20;;;;;;;59.72;34.97;;;17.60;99.90;;;;;;4908447;29;20458;-57
2023/09/05 07:09:47;;;;;;;60.85;37.10;;;17.60;99.90;;;;;;4906212;29;20473;-57
2023/09/05 07:12:14;;;;;;;62.40;38.40;;;17.70;99.90;;;;;;4907339;29;20056;-57
2023/09/05 07:14:42;;;;;;;58.00;37.30;;;17.80;99.90;;;;;;4903107;29;20056;-58
2023/09/05 07:17:11;;;;;;;54.88;36.25;;;17.90;99.90;;;;;;4908889;29;20099;-57
2023/09/05 07:19:38;;;;;;;53.80;34.28;;;18.00;99.90;;;;;;4909908;29;20131;-56
2023/09/05 07:22:05;;;;;;;56.15;34.08;;;18.10;99.90;;;;;;4907161;29;20044;-63
2023/09/05 07:24:32;;;;;;;57.22;34.13;;;18.20;99.90;;;;;;4900515;29;20110;-55
2023/09/05 07:26:59;;;;;;;52.67;33.90;;;18.30;99.90;;;;;;4908532;29;20056;-56
2023/09/05 07:29:31;;;;;;;53.60;34.00;;;18.30;99.90;;;;;;4903991;29;20144;-57
2023/09/05 07:31:58;;;;;;;54.72;32.75;;;18.40;99.90;;;;;;4906990;29;20064;-58
2023/09/05 07:34:26;;;;;;;45.22;32.25;;;18.40;99.90;;;;;;4909929;29;20054;-58
2023/09/05 07:36:54;;;;;;;49.88;32.83;;;18.50;99.90;;;;;;4908024;29;20048;-58
2023/09/05 07:39:21;;;;;;;52.17;34.20;;;18.50;99.90;;;;;;4900527;29;20048;-60
2023/09/05 07:41:48;;;;;;;46.42;31.52;;;18.70;99.90;;;;;;4907377;29;20143;-58
2023/09/05 07:44:15;;;;;;;47.55;29.40;;;18.70;99.90;;;;;;4906826;29;20044;-61
2023/09/05 07:46:41;;;;;;;53.30;32.72;;;18.80;99.90;;;;;;4911462;29;20052;-57
2023/09/05 07:49:08;;;;;;;53.65;32.97;;;18.70;99.90;;;;;;4903966;29;20620;-58
2023/09/05 07:51:35;;;;;;;52.80;31.27;;;18.80;99.90;;;;;;4904698;29;20048;-60
2023/09/05 07:54:03;;;;;;;50.33;31.95;;;18.70;99.90;;;;;;4888252;29;20492;-58
2023/09/05 07:56:31;;;;;;;46.58;32.30;;;18.80;99.90;;;;;;4891712;29;20143;-58
2023/09/05 07:58:58;;;;;;;52.08;31.92;;;18.80;99.90;;;;;;4883934;29;20112;-59
2023/09/05 08:01:25;;;;;;;49.60;32.08;;;18.80;99.90;;;;;;4893971;29;20044;-59
2023/09/05 08:03:53;;;;;;;56.15;34.03;;;18.80;99.90;;;;;;4904713;29;20052;-58
2023/09/05 08:06:20;;;;;;;43.40;29.13;;;18.90;99.90;;;;;;4910521;29;20151;-57
2023/09/05 08:08:47;;;;;;;50.83;32.45;;;18.90;99.90;;;;;;4886213;29;20079;-58
2023/09/05 08:11:14;;;;;;;46.28;32.08;;;19.00;99.90;;;;;;4910597;29;20048;-60
2023/09/05 08:13:41;;;;;;;45.78;30.85;;;19.10;99.90;;;;;;4906994;29;20048;-59
2023/09/05 08:16:10;;;;;;;49.97;29.35;;;19.10;99.90;;;;;;4905175;29;20526;-60
2023/09/05 08:18:37;;;;;;;49.03;30.27;;;19.20;99.90;;;;;;4906029;29;20052;-59
2023/09/05 08:21:04;;;;;;;42.83;28.33;;;19.20;99.90;;;;;;4901018;29;20040;-58
2023/09/05 08:23:31;;;;;;;47.88;31.50;;;19.30;99.90;;;;;;4907385;29;20057;-58
2023/09/05 08:26:00;;;;;;;50.70;28.42;;;19.40;99.90;;;;;;4904221;29;20092;-59
2023/09/05 08:28:32;;;;;;;58.28;31.02;;;19.50;99.90;;;;;;4904532;29;20066;-58
2023/09/05 08:31:00;;;;;;;45.45;26.83;;;19.50;99.90;;;;;;4902612;29;20048;-57
2023/09/05 08:33:43;;;;;;;41.25;27.85;;;19.60;99.90;;;;;;4891258;29;20059;-59
2023/09/05 08:36:10;;;;;;;46.42;26.40;;;19.60;99.90;;;;;;4903173;29;20047;-59
2023/09/05 08:38:37;;;;;;;38.40;25.42;;;19.60;99.90;;;;;;4905466;29;20499;-58
2023/09/05 08:41:06;;;;;;;42.60;25.15;;;19.70;99.90;;;;;;4903759;29;20052;-58
2023/09/05 08:43:36;;;;;;;37.00;24.42;;;19.80;99.90;;;;;;4906424;29;20048;-57
2023/09/05 08:46:04;;;;;;;38.67;22.55;;;20.00;99.90;;;;;;4892259;29;20096;-56
2023/09/05 08:48:31;;;;;;;39.78;23.85;;;20.10;99.90;;;;;;4910409;29;20048;-59
2023/09/05 08:51:18;;;;;;;37.42;22.63;;;20.30;99.90;;;;;;4905808;29;20060;-59
2023/09/05 08:53:56;;;;;;;30.75;20.98;;;20.40;99.90;;;;;;4909526;29;20048;-58
2023/09/05 08:56:23;;;;;;;33.65;21.52;;;20.40;99.90;;;;;;4899094;29;20045;-58
2023/09/05 08:58:51;;;;;;;34.58;21.20;;;20.50;99.90;;;;;;4883819;29;20055;-59
2023/09/05 09:01:19;;;;;;;32.85;21.48;;;20.50;99.90;;;;;;4907540;29;20048;-54
2023/09/05 09:03:48;;;;;;;27.25;18.98;;;20.60;99.90;;;;;;4906893;29;20543;-59
2023/09/05 09:06:15;;;;;;;25.88;17.25;;;20.60;99.90;;;;;;4904832;29;20040;-57
2023/09/05 09:08:43;;;;;;;35.17;19.58;;;20.70;99.90;;;;;;4900830;29;20048;-58
2023/09/05 09:11:10;;;;;;;24.75;18.02;;;20.80;99.90;;;;;;4899550;29;20090;-58
2023/09/05 09:13:40;;;;;;;24.10;17.33;;;20.80;99.90;;;;;;4907340;29;20342;-59
2023/09/05 09:16:07;;;;;;;29.92;17.45;;;21.00;99.90;;;;;;4902980;29;20503;-57
2023/09/05 09:18:34;;;;;;;33.80;18.38;;;21.10;99.90;;;;;;4907648;29;20044;-58
2023/09/05 09:21:04;;;;;;;28.90;16.48;;;21.20;99.90;;;;;;4906240;29;20056;-58
2023/09/05 09:23:35;;;;;;;23.95;15.52;;;21.30;99.90;;;;;;4899839;29;20155;-60
2023/09/05 09:26:03;;;;;;;24.08;14.82;;;21.50;99.90;;;;;;4901529;29;20052;-61
2023/09/05 09:28:32;;;;;;;22.02;14.43;;;22.00;99.90;;;;;;4901428;29;20060;-60
2023/09/05 09:30:59;;;;;;;21.15;13.18;;;22.50;99.90;;;;;;4891115;29;20063;-60
2023/09/05 09:33:26;;;;;;;17.65;11.90;;;22.80;99.90;;;;;;4905352;29;20079;-59
2023/09/05 09:36:04;;;;;;;20.15;12.20;;;23.20;99.90;;;;;;4905901;29;20438;-59
2023/09/05 09:38:31;;;;;;;18.60;11.35;;;23.60;99.90;;;;;;4901684;29;20508;-60
2023/09/05 09:41:01;;;;;;;18.52;10.55;;;23.80;99.90;;;;;;4903317;29;20468;-62
2023/09/05 09:43:28;;;;;;;16.40;10.10;;;24.10;99.90;;;;;;4901212;29;20052;-59
2023/09/05 09:45:57;;;;;;;21.85;9.63;;;24.40;99.90;;;;;;4896107;29;20112;-59
2023/09/05 09:48:26;;;;;;;20.42;9.55;;;24.60;99.90;;;;;;4890273;29;20063;-61
2023/09/05 09:50:54;;;;;;;16.90;9.50;;;24.80;99.90;;;;;;4884165;29;20673;-59
2023/09/05 09:53:30;;;;;;;16.45;8.00;;;24.90;99.90;;;;;;4906189;29;20056;-60
2023/09/05 09:56:00;;;;;;;18.67;7.95;;;25.10;99.90;;;;;;4904345;29;20108;-59
2023/09/05 09:58:28;;;;;;;20.63;7.47;;;25.50;99.90;;;;;;4908163;29;20068;-59
2023/09/05 10:00:55;;;;;;;16.67;7.93;;;25.60;99.90;;;;;;4890614;29;20117;-60
2023/09/05 10:03:24;;;;;;;12.68;7.25;;;25.70;99.90;;;;;;4904984;29;20052;-59
2023/09/05 10:05:52;;;;;;;21.67;6.70;;;25.50;99.90;;;;;;4887362;29;20068;-59
2023/09/05 10:08:20;;;;;;;13.98;6.57;;;25.30;99.90;;;;;;4888794;29;20056;-60
2023/09/05 10:10:47;;;;;;;13.25;6.30;;;25.00;99.90;;;;;;4890334;29;20551;-59
2023/09/05 10:13:14;;;;;;;13.80;6.93;;;24.80;99.90;;;;;;4884842;29;20052;-60
2023/09/05 10:15:41;;;;;;;25.55;7.70;;;24.70;99.90;;;;;;4903692;29;20066;-58
2023/09/05 10:18:12;;;;;;;16.60;6.72;;;24.60;99.90;;;;;;4888961;29;20055;-59
2023/09/05 10:20:40;;;;;;;12.15;6.57;;;24.50;99.90;;;;;;4901140;29;20053;-60
2023/09/05 10:23:07;;;;;;;16.50;6.63;;;24.50;99.90;;;;;;4901693;29;20724;-59
2023/09/05 10:25:37;;;;;;;12.05;5.88;;;24.50;99.90;;;;;;4908566;29;20546;-59
2023/09/05 10:28:04;;;;;;;11.38;7.00;;;24.60;99.90;;;;;;4889803;29;20068;-58
2023/09/05 10:30:41;;;;;;;18.35;6.13;;;24.60;99.90;;;;;;4895947;29;20067;-59
2023/09/05 10:33:11;;;;;;;15.82;6.88;;;24.50;99.90;;;;;;4905494;29;20572;-59
2023/09/05 10:35:44;;;;;;;13.18;6.10;;;24.40;99.90;;;;;;4906783;29;20129;-59
2023/09/05 10:38:12;;;;;;;11.32;5.90;;;24.40;99.90;;;;;;4905548;29;20127;-59
2023/09/05 10:40:39;;;;;;;15.13;5.88;;;24.40;99.90;;;;;;4905757;29;20554;-60
2023/09/05 10:43:18;;;;;;;16.42;5.55;;;24.50;99.90;;;;;;4886509;29;20056;-60
2023/09/05 10:45:44;;;;;;;14.95;5.75;;;24.50;99.90;;;;;;4909760;29;20475;-61
2023/09/05 10:48:15;;;;;;;12.90;5.78;;;24.50;99.90;;;;;;4892159;29;20051;-60
2023/09/05 10:51:11;;;;;;;29.02;6.50;;;24.60;99.90;;;;;;4890881;29;20060;-58
2023/09/05 10:53:39;;;;;;;8.60;5.00;;;24.60;99.90;;;;;;4908310;29;20128;-60
2023/09/05 10:56:43;;;;;;;12.30;6.28;;;24.60;99.90;;;;;;4890718;29;20141;-60
2023/09/05 10:59:26;;;;;;;14.20;5.05;;;24.60;99.90;;;;;;4890699;29;20067;-58
2023/09/05 11:02:00;;;;;;;7.47;4.57;;;24.60;99.90;;;;;;4907408;29;20538;-59
2023/09/05 11:04:29;;;;;;;9.02;4.75;;;24.60;99.90;;;;;;4893836;29;20044;-59
2023/09/05 11:06:58;;;;;;;9.70;4.70;;;24.70;99.90;;;;;;4908298;29;20064;-59
2023/09/05 11:09:25;;;;;;;12.88;5.25;;;24.80;99.90;;;;;;4905785;29;20063;-60
2023/09/05 11:11:52;;;;;;;15.18;5.22;;;24.80;99.90;;;;;;4905482;29;20052;-60
2023/09/05 11:14:30;;;;;;;22.58;5.68;;;25.00;99.90;;;;;;4907364;29;20229;-60
2023/09/05 11:16:56;;;;;;;25.02;4.90;;;25.00;99.90;;;;;;4908891;29;20575;-59
2023/09/05 11:19:47;;;;;;;16.33;5.25;;;25.10;99.90;;;;;;4908520;29;20049;-60
2023/09/05 11:22:17;;;;;;;8.55;5.30;;;25.10;99.90;;;;;;4905996;29;20054;-59
2023/09/05 11:24:54;;;;;;;10.38;4.63;;;25.20;99.90;;;;;;4909003;29;20048;-60
2023/09/05 11:27:24;;;;;;;10.88;5.60;;;25.20;99.90;;;;;;4909128;29;20123;-60
2023/09/05 11:29:55;;;;;;;8.35;4.05;;;25.20;99.90;;;;;;4904377;29;20051;-60
2023/09/05 11:32:31;;;;;;;6.35;3.78;;;25.20;99.90;;;;;;4897720;29;20040;-59
2023/09/05 11:34:58;;;;;;;6.90;4.05;;;25.40;99.90;;;;;;4913089;29;20511;-60
2023/09/05 11:37:28;;;;;;;16.50;4.43;;;25.50;99.90;;;;;;4893088;29;20543;-60
2023/09/05 11:39:55;;;;;;;7.65;4.78;;;25.60;99.90;;;;;;4909339;29;20291;-59
2023/09/05 11:42:32;;;;;;;8.38;3.75;;;25.60;99.90;;;;;;4884079;29;20507;-59
2023/09/05 11:44:59;;;;;;;12.20;4.50;;;25.70;99.90;;;;;;4888388;29;20057;-59
2023/09/05 11:47:26;;;;;;;5.40;3.17;;;25.80;99.90;;;;;;4891768;29;20413;-59
2023/09/05 11:49:53;;;;;;;10.70;3.97;;;25.80;99.90;;;;;;4908589;29;20048;-59
2023/09/05 11:52:21;;;;;;;8.38;3.92;;;25.90;99.90;;;;;;4899766;29;20052;-59
2023/09/05 11:54:48;;;;;;;10.95;3.22;;;25.90;99.90;;;;;;4894347;29;20062;-59
2023/09/05 11:57:19;;;;;;;6.70;3.88;;;26.00;99.90;;;;;;4887851;29;20059;-59
2023/09/05 11:59:47;;;;;;;9.35;3.45;;;26.10;99.90;;;;;;4885977;29;20496;-60
2023/09/05 12:02:16;;;;;;;9.60;3.97;;;26.10;99.90;;;;;;4903137;29;20305;-59
2023/09/05 12:04:42;;;;;;;10.07;3.35;;;26.10;99.90;;;;;;4894677;29;20055;-58
2023/09/05 12:07:09;;;;;;;5.07;3.10;;;26.20;99.90;;;;;;4905172;29;20091;-60
2023/09/05 12:09:36;;;;;;;6.18;3.85;;;26.20;99.90;;;;;;4902455;29;20048;-60
2023/09/05 12:12:07;;;;;;;7.32;2.75;;;26.20;99.90;;;;;;4904063;29;20135;-59
2023/09/05 12:14:50;;;;;;;9.85;3.72;;;26.30;99.90;;;;;;4907810;29;20052;-59
2023/09/05 12:17:21;;;;;;;7.40;3.50;;;26.30;99.90;;;;;;4903047;29;20060;-58
2023/09/05 12:19:48;;;;;;;14.23;3.88;;;26.40;99.90;;;;;;4907265;29;20040;-59
2023/09/05 12:22:29;;;;;;;7.65;2.85;;;26.40;99.90;;;;;;4907594;29;20107;-59
2023/09/05 12:25:08;;;;;;;7.82;2.75;;;26.50;99.90;;;;;;4906893;29;20055;-60
2023/09/05 12:27:38;;;;;;;4.95;2.85;;;26.50;99.90;;;;;;4904028;29;20048;-60
2023/09/05 12:30:07;;;;;;;4.57;2.92;;;26.60;99.90;;;;;;4893414;29;20127;-60
2023/09/05 12:32:34;;;;;;;8.63;3.40;;;26.60;99.90;;;;;;4906001;29;20108;-60
2023/09/05 12:35:03;;;;;;;9.45;3.03;;;26.70;99.90;;;;;;4901295;29;20544;-60
2023/09/05 12:37:30;;;;;;;8.85;3.28;;;26.80;99.90;;;;;;4563493;29;10000602;-60
2023/09/05 12:39:57;;;;;;;4.03;2.50;;;26.80;99.90;;;;;;4899115;29;20144;-59